createdAt,value
2023-05-04T00:00:14.926Z,63.70
2023-05-04T00:03:03.949Z,63.30
2023-05-04T00:05:33.146Z,63.20
2023-05-04T00:08:01.770Z,61.40
2023-05-04T00:10:33.341Z,68.70
2023-05-04T00:13:02.317Z,67.00
2023-05-04T00:15:29.740Z,60.80
2023-05-04T00:17:58.915Z,73.30
2023-05-04T00:20:25.455Z,74.70
2023-05-04T00:22:54.178Z,73.90
2023-05-04T00:25:23.214Z,67.40
2023-05-04T00:27:52.300Z,65.70
2023-05-04T00:30:19.847Z,70.30
2023-05-04T00:32:49.758Z,75.10
2023-05-04T00:35:16.445Z,72.50
2023-05-04T00:37:45.855Z,64.90
2023-05-04T00:40:12.513Z,65.90
2023-05-04T00:42:38.964Z,59.70
2023-05-04T00:45:05.917Z,61.70
2023-05-04T00:47:35.423Z,59.70
2023-05-04T00:50:03.650Z,57.90
2023-05-04T00:52:30.804Z,59.70
2023-05-04T00:54:59.727Z,59.80
2023-05-04T00:57:32.489Z,56.10
2023-05-04T01:00:01.561Z,57.70
2023-05-04T01:02:28.167Z,57.10
2023-05-04T01:04:57.459Z,52.80
2023-05-04T01:07:42.360Z,47.00
2023-05-04T03:01:25.799Z,113.60
2023-05-04T03:03:55.222Z,113.80
2023-05-04T03:06:24.070Z,111.00
2023-05-04T03:08:51.969Z,119.70
2023-05-04T03:11:23.248Z,108.50
2023-05-04T03:13:50.123Z,120.60
2023-05-04T03:16:20.484Z,122.30
2023-05-04T07:46:37.890Z,3.90
2023-05-04T07:49:05.254Z,4.20
2023-05-04T07:51:37.167Z,3.20
2023-05-04T07:54:03.659Z,2.20
2023-05-04T07:56:34.905Z,4.20
2023-05-04T07:59:01.586Z,5.40
2023-05-04T08:01:28.310Z,2.50
2023-05-04T08:03:57.245Z,3.00
2023-05-04T08:06:23.996Z,3.50
2023-05-04T08:08:53.064Z,5.00
2023-05-04T08:11:22.278Z,3.80
2023-05-04T08:13:49.810Z,4.50
2023-05-04T08:16:19.383Z,2.50
2023-05-04T08:18:50.706Z,4.30
2023-05-04T08:21:22.363Z,4.00
2023-05-04T08:23:52.344Z,2.60
2023-05-04T08:26:19.478Z,2.40
2023-05-04T08:28:48.349Z,2.90
2023-05-04T08:31:17.684Z,2.40
2023-05-04T08:33:50.791Z,2.10
2023-05-04T08:36:19.871Z,3.40
2023-05-04T08:38:49.999Z,2.70
2023-05-04T08:41:18.724Z,3.10
2023-05-04T08:43:48.784Z,3.40
2023-05-04T08:46:22.276Z,3.00
2023-05-04T08:48:53.763Z,3.90
2023-05-04T08:51:20.740Z,5.90
2023-05-04T08:53:50.010Z,1.90
2023-05-04T08:56:17.891Z,2.50
2023-05-04T08:58:51.523Z,2.80
2023-05-04T09:01:19.092Z,3.00
2023-05-04T09:03:52.899Z,3.40
2023-05-04T09:06:24.749Z,6.60
2023-05-04T09:08:51.170Z,3.60
2023-05-04T09:11:22.968Z,2.70
2023-05-04T09:13:54.769Z,4.00
2023-05-04T09:16:24.307Z,2.80
2023-05-04T09:18:51.126Z,4.10
2023-05-04T09:21:30.577Z,3.70
2023-05-04T09:23:57.735Z,3.70
2023-05-04T09:26:28.455Z,3.20
2023-05-04T09:29:13.505Z,3.60
2023-05-04T09:31:48.091Z,5.00
2023-05-04T09:34:14.867Z,4.80
2023-05-04T09:36:43.610Z,5.70
2023-05-04T09:39:14.899Z,2.60
2023-05-04T09:41:42.064Z,4.40
2023-05-04T09:44:23.178Z,5.70
2023-05-04T09:46:58.706Z,3.70
2023-05-04T09:49:38.240Z,3.10
2023-05-04T09:52:06.180Z,3.10
2023-05-04T09:54:38.165Z,1.90
2023-05-04T09:57:11.450Z,3.20
2023-05-04T09:59:38.983Z,3.20
2023-05-04T10:02:22.016Z,2.90
2023-05-04T10:04:53.250Z,2.60
2023-05-04T10:07:20.120Z,2.60
2023-05-04T10:09:48.179Z,2.70
2023-05-04T10:12:19.496Z,3.20
2023-05-04T10:14:48.466Z,2.40
2023-05-04T10:17:24.204Z,3.70
2023-05-04T10:20:11.234Z,2.40
2023-05-04T10:22:56.269Z,5.40
2023-05-04T10:26:12.616Z,4.70
2023-05-04T10:28:39.047Z,3.40
2023-05-04T10:31:10.693Z,1.90
2023-05-04T10:33:46.253Z,4.00
2023-05-04T10:36:12.757Z,2.70
2023-05-04T10:38:41.822Z,3.60
2023-05-04T10:41:21.686Z,4.00
2023-05-04T10:44:02.584Z,3.20
2023-05-04T10:46:34.362Z,5.80
2023-05-04T10:49:15.191Z,3.70
2023-05-04T10:51:49.325Z,3.30
2023-05-04T10:54:19.454Z,2.90
2023-05-04T10:56:59.996Z,1.80
2023-05-04T10:59:31.604Z,2.30
2023-05-04T11:02:02.283Z,4.90
2023-05-04T11:04:32.196Z,3.50
2023-05-04T11:07:06.013Z,2.40
2023-05-04T11:09:43.809Z,3.10
2023-05-04T11:12:19.205Z,6.40
2023-05-04T11:14:48.568Z,4.10
2023-05-04T11:19:54.180Z,7.90
2023-05-04T11:22:23.382Z,4.80
2023-05-04T11:24:49.884Z,8.60
2023-05-04T11:27:27.985Z,2.50
2023-05-04T11:30:04.488Z,2.40
2023-05-04T11:32:38.751Z,2.80
2023-05-04T11:35:11.107Z,2.00
2023-05-04T11:37:44.883Z,4.70
2023-05-04T11:40:30.105Z,2.10
2023-05-04T11:42:59.775Z,4.20
2023-05-04T11:45:33.280Z,4.70
2023-05-04T11:48:00.774Z,2.90
2023-05-04T11:50:28.463Z,6.20
2023-05-04T11:53:05.858Z,5.80
2023-05-04T11:55:32.398Z,2.60
2023-05-04T11:58:03.918Z,4.20
2023-05-04T12:00:38.123Z,2.60
2023-05-04T12:03:14.384Z,5.50
2023-05-04T12:05:51.755Z,3.60
2023-05-04T12:08:34.355Z,6.10
2023-05-04T12:11:24.817Z,6.10
2023-05-04T12:14:13.448Z,2.80
2023-05-04T12:16:54.911Z,2.80
2023-05-04T12:19:24.047Z,2.50
2023-05-04T12:21:53.837Z,3.30
2023-05-04T12:24:28.930Z,2.90
2023-05-04T12:26:58.039Z,5.70
2023-05-04T12:29:29.093Z,4.30
2023-05-04T12:31:55.995Z,4.40
2023-05-04T12:34:27.458Z,4.70
2023-05-04T12:36:57.700Z,2.20
2023-05-04T12:39:24.078Z,2.30
2023-05-04T12:41:55.115Z,3.60
2023-05-04T12:44:24.228Z,3.80
2023-05-04T12:46:53.410Z,4.00
2023-05-04T12:49:19.926Z,3.90
2023-05-04T12:51:47.434Z,4.50
2023-05-04T12:54:21.244Z,2.80
2023-05-04T12:56:50.016Z,7.10
2023-05-04T12:59:19.013Z,6.10
2023-05-04T13:01:45.516Z,3.20
2023-05-04T13:04:14.591Z,3.60
2023-05-04T13:06:44.588Z,3.10
2023-05-04T13:09:14.798Z,3.60
2023-05-04T14:33:31.289Z,5.60
2023-05-04T14:36:02.713Z,3.80
2023-05-04T14:38:29.276Z,3.60
2023-05-04T14:40:58.768Z,4.60
2023-05-04T14:43:28.005Z,3.90
2023-05-04T14:46:00.281Z,3.90
2023-05-04T14:48:28.825Z,3.20
2023-05-04T14:50:56.256Z,2.90
2023-05-04T14:58:11.957Z,4.70
2023-05-04T15:00:38.534Z,3.50
2023-05-04T15:03:05.922Z,4.60
2023-05-04T15:05:36.973Z,4.80
2023-05-04T15:08:03.569Z,8.50
2023-05-04T15:10:32.561Z,2.30
2023-05-04T15:13:03.992Z,2.80
2023-05-04T15:16:03.949Z,5.00
2023-05-04T15:18:31.451Z,2.20
2023-05-04T15:21:00.473Z,2.20
2023-05-04T15:23:29.363Z,2.50
2023-05-04T15:26:31.181Z,3.00
2023-05-04T15:32:36.780Z,5.10
2023-05-04T15:35:21.078Z,3.80
2023-05-04T15:37:50.080Z,5.00
2023-05-04T15:40:16.441Z,5.40
2023-05-04T15:42:42.936Z,4.30
2023-05-04T15:45:11.326Z,3.70
2023-05-04T15:48:08.457Z,4.00
2023-05-04T15:50:35.454Z,4.60
2023-05-04T15:53:02.828Z,4.10
2023-05-04T15:55:32.680Z,2.60
2023-05-04T15:58:01.533Z,8.80
2023-05-04T16:00:30.711Z,3.40
2023-05-04T16:02:58.639Z,2.50
2023-05-04T17:03:00.110Z,6.20
2023-05-04T17:05:29.435Z,4.80
2023-05-04T17:07:55.821Z,2.00
2023-05-04T17:10:26.992Z,4.80
2023-05-04T17:12:54.307Z,5.50
2023-05-04T17:15:22.984Z,2.40
2023-05-04T17:17:49.543Z,2.00
2023-05-04T17:20:16.291Z,2.80
2023-05-04T17:22:43.079Z,6.80
2023-05-04T17:25:10.860Z,4.10
2023-05-04T17:27:37.618Z,4.70
2023-05-04T17:30:07.294Z,3.60
2023-05-04T17:32:37.427Z,3.50
2023-05-04T17:35:15.973Z,4.60
2023-05-04T17:37:54.534Z,5.20
2023-05-04T17:40:23.612Z,6.10
2023-05-04T17:42:50.117Z,5.50
2023-05-04T17:45:16.643Z,8.70
2023-05-04T17:47:45.697Z,4.40
2023-05-04T17:50:14.389Z,3.30
2023-05-04T17:52:46.395Z,7.50
2023-05-04T17:55:17.796Z,6.00
2023-05-04T17:57:47.025Z,5.20
2023-05-04T18:00:13.924Z,5.50
2023-05-04T18:02:40.499Z,4.00
2023-05-04T18:05:07.514Z,6.20
2023-05-04T18:07:33.898Z,6.60
2023-05-04T18:10:01.367Z,8.70
2023-05-04T18:12:28.336Z,4.10
2023-05-04T18:14:57.166Z,6.00
2023-05-04T18:17:28.640Z,7.50
2023-05-04T18:19:55.927Z,6.00
2023-05-04T18:22:24.737Z,4.90
2023-05-04T18:24:53.380Z,3.50
2023-05-04T18:27:22.492Z,6.40
2023-05-04T18:29:52.048Z,7.80
2023-05-04T18:32:18.592Z,7.20
2023-05-04T18:34:50.937Z,9.70
2023-05-04T18:37:17.485Z,5.70
2023-05-04T18:39:47.830Z,5.70
2023-05-04T18:42:17.344Z,7.00
2023-05-04T18:44:44.897Z,9.10
2023-05-04T18:47:11.295Z,10.70
2023-05-04T18:49:38.237Z,9.10
2023-05-04T18:52:04.786Z,6.80
2023-05-04T18:54:34.554Z,5.80
2023-05-04T18:57:02.702Z,7.30
2023-05-04T18:59:34.472Z,8.50
2023-05-04T19:02:01.520Z,9.70
2023-05-04T19:04:32.754Z,12.00
2023-05-04T19:07:01.580Z,14.00
2023-05-04T19:09:30.856Z,9.10
2023-05-04T19:11:59.929Z,8.20
2023-05-04T19:14:30.258Z,8.10
2023-05-04T19:17:00.167Z,18.50
2023-05-04T19:19:28.776Z,17.60
2023-05-04T19:21:58.017Z,16.10
2023-05-04T19:24:24.892Z,11.70
2023-05-04T19:26:54.108Z,17.80
2023-05-04T19:29:20.501Z,14.60
2023-05-04T19:31:47.345Z,14.30
2023-05-04T19:34:17.695Z,15.60
2023-05-04T19:36:49.277Z,14.10
2023-05-04T19:39:19.322Z,12.00
2023-05-04T19:41:48.888Z,15.80
2023-05-04T19:44:15.449Z,13.60
2023-05-04T19:46:44.056Z,15.50
2023-05-04T19:49:13.146Z,15.30
2023-05-04T19:51:41.808Z,14.20
2023-05-04T19:54:11.860Z,12.50
2023-05-04T19:56:40.723Z,13.70
2023-05-04T19:59:07.095Z,18.40
2023-05-04T20:01:36.499Z,13.40
2023-05-04T20:04:07.636Z,13.50
2023-05-04T20:06:36.848Z,11.50
2023-05-04T20:09:03.436Z,10.90
2023-05-04T20:11:33.158Z,18.60
2023-05-04T20:14:02.199Z,14.20
2023-05-04T20:16:28.766Z,15.50
2023-05-04T20:18:57.548Z,13.40
2023-05-04T20:21:27.233Z,17.30
2023-05-04T20:23:57.926Z,12.40
2023-05-04T20:26:27.024Z,14.80
2023-05-04T20:28:53.619Z,16.40
2023-05-04T20:31:22.186Z,15.70
2023-05-04T20:33:51.141Z,19.30
2023-05-04T20:36:18.296Z,19.20
2023-05-04T20:38:49.091Z,17.90
2023-05-04T20:41:15.479Z,16.00
2023-05-04T20:43:44.343Z,12.90
2023-05-04T20:46:13.517Z,15.00
2023-05-04T20:48:40.272Z,16.40
2023-05-04T20:51:14.335Z,17.30
2023-05-04T20:53:41.991Z,17.70
2023-05-04T20:56:14.217Z,14.20
2023-05-04T20:58:40.901Z,26.30
2023-05-04T21:01:11.859Z,20.80
2023-05-04T21:03:38.376Z,15.20
2023-05-04T21:06:05.852Z,16.10
2023-05-04T21:08:32.362Z,15.10
2023-05-04T21:11:05.873Z,18.40
2023-05-04T21:13:39.201Z,15.70
2023-05-04T21:16:08.229Z,9.90
2023-05-04T21:18:42.128Z,11.90
2023-05-04T21:21:11.174Z,10.70
2023-05-04T21:23:40.648Z,13.80
2023-05-04T21:26:09.836Z,10.10
2023-05-04T21:28:36.315Z,13.40
2023-05-04T21:31:10.751Z,12.50
2023-05-04T21:33:42.456Z,14.70
2023-05-04T21:36:13.273Z,17.10
2023-05-04T21:38:40.473Z,10.70
2023-05-04T21:41:14.637Z,13.20
2023-05-04T21:43:41.952Z,12.00
2023-05-04T21:46:08.458Z,8.80
2023-05-04T21:48:37.959Z,9.20
2023-05-04T21:51:06.921Z,19.10
2023-05-04T21:53:36.348Z,13.80
2023-05-04T21:56:07.749Z,9.40
2023-05-04T21:58:36.550Z,16.60
2023-05-04T22:01:03.267Z,17.00
2023-05-04T22:03:31.073Z,14.50
2023-05-04T22:06:02.840Z,13.10
2023-05-04T22:08:29.393Z,12.60
2023-05-04T22:10:59.177Z,14.30
2023-05-04T22:13:25.746Z,14.10
2023-05-04T22:15:53.092Z,15.60
2023-05-04T22:18:20.319Z,12.80
2023-05-04T22:20:50.155Z,16.40
2023-05-04T22:23:16.736Z,14.10
2023-05-04T22:25:45.381Z,14.30
2023-05-04T22:28:11.892Z,19.60
2023-05-04T22:30:41.013Z,16.80
2023-05-04T22:33:07.735Z,15.70
2023-05-04T22:35:34.128Z,18.50
2023-05-04T22:38:05.741Z,13.30
2023-05-04T22:40:34.876Z,18.50
2023-05-04T22:43:04.497Z,16.20
2023-05-04T22:45:30.900Z,20.20
2023-05-04T22:47:57.452Z,15.60
2023-05-04T22:50:24.016Z,15.30
2023-05-04T22:52:58.946Z,13.70
2023-05-04T22:55:28.056Z,13.60
2023-05-04T22:57:59.060Z,15.80
2023-05-04T23:00:32.487Z,16.30
2023-05-04T23:03:12.547Z,14.10
2023-05-04T23:05:39.086Z,17.10
2023-05-04T23:08:10.829Z,15.30
2023-05-04T23:10:40.041Z,17.40
2023-05-04T23:13:09.205Z,14.50
2023-05-04T23:15:35.712Z,21.90
2023-05-04T23:18:05.121Z,16.30
2023-05-04T23:20:36.327Z,16.80
2023-05-04T23:23:05.712Z,14.70
2023-05-04T23:25:32.201Z,16.60
2023-05-04T23:27:58.883Z,18.60
2023-05-04T23:30:28.046Z,14.60
2023-05-04T23:32:57.826Z,13.40
2023-05-04T23:35:26.113Z,18.60
2023-05-04T23:37:57.538Z,16.20
2023-05-04T23:40:26.087Z,14.30
2023-05-04T23:42:57.872Z,12.80
2023-05-04T23:45:24.345Z,16.60
2023-05-04T23:47:53.090Z,13.00
2023-05-04T23:50:22.204Z,16.00
2023-05-04T23:52:48.652Z,15.70
2023-05-04T23:55:15.147Z,15.00
2023-05-04T23:57:47.238Z,15.10
